sensor_id;sensor_type;location;lat;lon;timestamp;pressure;altitude;pressure_sealevel;temperature;humidity
56504;BME280;48812;51.606;-0.114;2023-05-08T00:01:42;101375.94;;;19.87;56.56
56504;BME280;48812;51.606;-0.114;2023-05-08T00:04:14;101377.75;;;19.86;56.43
56504;BME280;48812;51.606;-0.114;2023-05-08T00:06:47;101379.59;;;19.86;56.87
56504;BME280;48812;51.606;-0.114;2023-05-08T00:09:19;101386.66;;;19.87;56.88
56504;BME280;48812;51.606;-0.114;2023-05-08T00:11:53;101373.31;;;19.85;56.64
56504;BME280;48812;51.606;-0.114;2023-05-08T00:14:26;101374.28;;;19.84;56.54
56504;BME280;48812;51.606;-0.114;2023-05-08T00:16:58;101362.69;;;19.84;56.45
56504;BME280;48812;51.606;-0.114;2023-05-08T00:19:33;101360.88;;;19.84;56.81
56504;BME280;48812;51.606;-0.114;2023-05-08T00:22:06;101361.81;;;19.83;56.63
56504;BME280;48812;51.606;-0.114;2023-05-08T00:24:38;101364.56;;;19.82;56.77
56504;BME280;48812;51.606;-0.114;2023-05-08T00:27:11;101365.44;;;19.82;56.42
56504;BME280;48812;51.606;-0.114;2023-05-08T00:29:43;101360.94;;;19.83;56.70
56504;BME280;48812;51.606;-0.114;2023-05-08T00:32:16;101355.66;;;19.81;56.50
56504;BME280;48812;51.606;-0.114;2023-05-08T00:34:48;101363.69;;;19.81;56.68
56504;BME280;48812;51.606;-0.114;2023-05-08T00:37:21;101361.88;;;19.82;56.65
56504;BME280;48812;51.606;-0.114;2023-05-08T00:39:53;101348.53;;;19.80;56.77
56504;BME280;48812;51.606;-0.114;2023-05-08T00:42:25;101352.97;;;19.81;57.01
56504;BME280;48812;51.606;-0.114;2023-05-08T00:44:58;101350.34;;;19.80;56.44
56504;BME280;48812;51.606;-0.114;2023-05-08T00:47:31;101352.19;;;19.79;56.54
56504;BME280;48812;51.606;-0.114;2023-05-08T00:50:04;101346.81;;;19.79;56.35
56504;BME280;48812;51.606;-0.114;2023-05-08T00:52:36;101340.53;;;19.79;56.38
56504;BME280;48812;51.606;-0.114;2023-05-08T00:55:09;101342.44;;;19.77;56.79
56504;BME280;48812;51.606;-0.114;2023-05-08T00:57:41;101349.63;;;19.76;56.73
56504;BME280;48812;51.606;-0.114;2023-05-08T01:00:17;101344.28;;;19.76;56.78
56504;BME280;48812;51.606;-0.114;2023-05-08T01:02:49;101339.84;;;19.75;56.87
56504;BME280;48812;51.606;-0.114;2023-05-08T01:05:22;101336.28;;;19.75;57.05
56504;BME280;48812;51.606;-0.114;2023-05-08T01:07:55;101339.91;;;19.74;56.76
56504;BME280;48812;51.606;-0.114;2023-05-08T01:10:37;101339.03;;;19.73;56.84
56504;BME280;48812;51.606;-0.114;2023-05-08T01:19:02;101344.41;;;19.73;56.92
56504;BME280;48812;51.606;-0.114;2023-05-08T01:21:46;101333.75;;;19.71;56.48
56504;BME280;48812;51.606;-0.114;2023-05-08T01:33:06;101332.06;;;19.69;56.78
56504;BME280;48812;51.606;-0.114;2023-05-08T01:35:49;101330.34;;;19.68;56.73
56504;BME280;48812;51.606;-0.114;2023-05-08T01:39:09;101330.34;;;19.68;56.40
56504;BME280;48812;51.606;-0.114;2023-05-08T01:41:39;101329.50;;;19.67;56.95
56504;BME280;48812;51.606;-0.114;2023-05-08T01:44:17;101321.50;;;19.66;56.68
56504;BME280;48812;51.606;-0.114;2023-05-08T01:46:51;101333.09;;;19.66;56.98
56504;BME280;48812;51.606;-0.114;2023-05-08T01:49:46;101322.44;;;19.65;56.61
56504;BME280;48812;51.606;-0.114;2023-05-08T01:52:28;101326.88;;;19.66;56.89
56504;BME280;48812;51.606;-0.114;2023-05-08T01:55:04;101330.50;;;19.65;56.60
56504;BME280;48812;51.606;-0.114;2023-05-08T01:57:44;101335.00;;;19.64;56.89
56504;BME280;48812;51.606;-0.114;2023-05-08T02:00:21;101328.72;;;19.64;56.69
56504;BME280;48812;51.606;-0.114;2023-05-08T02:02:54;101328.72;;;19.64;56.91
56504;BME280;48812;51.606;-0.114;2023-05-08T02:05:31;101335.94;;;19.63;56.54
56504;BME280;48812;51.606;-0.114;2023-05-08T02:08:08;101337.75;;;19.63;56.92
56504;BME280;48812;51.606;-0.114;2023-05-08T02:10:43;101346.72;;;19.62;56.94
56504;BME280;48812;51.606;-0.114;2023-05-08T02:13:21;101340.56;;;19.60;56.77
56504;BME280;48812;51.606;-0.114;2023-05-08T02:15:57;101343.19;;;19.61;56.80
56504;BME280;48812;51.606;-0.114;2023-05-08T02:18:31;101341.34;;;19.62;56.63
56504;BME280;48812;51.606;-0.114;2023-05-08T02:21:05;101338.75;;;19.60;56.84
56504;BME280;48812;51.606;-0.114;2023-05-08T02:23:42;101335.22;;;19.60;56.94
56504;BME280;48812;51.606;-0.114;2023-05-08T02:26:17;101344.97;;;19.61;57.03
56504;BME280;48812;51.606;-0.114;2023-05-08T02:28:52;101346.88;;;19.59;56.56
56504;BME280;48812;51.606;-0.114;2023-05-08T02:31:26;101349.63;;;19.57;56.95
56504;BME280;48812;51.606;-0.114;2023-05-08T02:33:59;101346.00;;;19.58;56.64
56504;BME280;48812;51.606;-0.114;2023-05-08T02:36:34;101336.22;;;19.57;56.76
56504;BME280;48812;51.606;-0.114;2023-05-08T02:39:13;101336.22;;;19.57;56.50
56504;BME280;48812;51.606;-0.114;2023-05-08T02:41:47;101344.25;;;19.57;56.88
56504;BME280;48812;51.606;-0.114;2023-05-08T02:44:21;101339.84;;;19.56;56.77
56504;BME280;48812;51.606;-0.114;2023-05-08T02:49:55;101340.78;;;19.55;56.67
56504;BME280;48812;51.606;-0.114;2023-05-08T02:52:39;101338.97;;;19.56;57.00
56504;BME280;48812;51.606;-0.114;2023-05-08T02:55:52;101329.19;;;19.55;56.93
56504;BME280;48812;51.606;-0.114;2023-05-08T02:58:36;101325.69;;;19.52;56.48
56504;BME280;48812;51.606;-0.114;2023-05-08T03:01:20;101327.50;;;19.52;56.95
56504;BME280;48812;51.606;-0.114;2023-05-08T03:04:00;101330.19;;;19.52;56.40
56504;BME280;48812;51.606;-0.114;2023-05-08T03:06:41;101323.97;;;19.51;57.29
56504;BME280;48812;51.606;-0.114;2023-05-08T03:09:18;101328.47;;;19.51;57.01
56504;BME280;48812;51.606;-0.114;2023-05-08T03:11:58;101322.22;;;19.50;56.91
56504;BME280;48812;51.606;-0.114;2023-05-08T03:14:36;101325.84;;;19.49;57.18
56504;BME280;48812;51.606;-0.114;2023-05-08T03:17:14;101328.53;;;19.49;56.81
56504;BME280;48812;51.606;-0.114;2023-05-08T03:19:49;101330.31;;;19.49;56.73
56504;BME280;48812;51.606;-0.114;2023-05-08T03:22:25;101327.72;;;19.47;56.95
56504;BME280;48812;51.606;-0.114;2023-05-08T03:25:01;101316.06;;;19.48;56.88
56504;BME280;48812;51.606;-0.114;2023-05-08T03:27:38;101320.63;;;19.46;56.69
56504;BME280;48812;51.606;-0.114;2023-05-08T03:30:12;101319.75;;;19.46;57.16
56504;BME280;48812;51.606;-0.114;2023-05-08T03:32:49;101318.88;;;19.45;56.38
56504;BME280;48812;51.606;-0.114;2023-05-08T03:35:24;101326.00;;;19.46;56.60
56504;BME280;48812;51.606;-0.114;2023-05-08T03:37:58;101323.38;;;19.45;56.71
56504;BME280;48812;51.606;-0.114;2023-05-08T03:40:32;101322.50;;;19.44;56.82
56504;BME280;48812;51.606;-0.114;2023-05-08T03:43:10;101322.50;;;19.44;57.08
56504;BME280;48812;51.606;-0.114;2023-05-08T03:45:44;101323.44;;;19.43;57.09
56504;BME280;48812;51.606;-0.114;2023-05-08T03:48:18;101321.69;;;19.42;56.49
56504;BME280;48812;51.606;-0.114;2023-05-08T03:50:54;101313.78;;;19.39;56.53
56504;BME280;48812;51.606;-0.114;2023-05-08T03:53:28;101317.28;;;19.41;56.81
56504;BME280;48812;51.606;-0.114;2023-05-08T03:56:02;101313.72;;;19.41;56.93
56504;BME280;48812;51.606;-0.114;2023-05-08T04:01:24;101318.22;;;19.40;56.74
56504;BME280;48812;51.606;-0.114;2023-05-08T04:06:43;101300.47;;;19.38;57.13
56504;BME280;48812;51.606;-0.114;2023-05-08T04:09:33;101311.13;;;19.39;57.32
56504;BME280;48812;51.606;-0.114;2023-05-08T04:12:19;101310.31;;;19.37;56.62
56504;BME280;48812;51.606;-0.114;2023-05-08T04:15:05;101306.75;;;19.37;56.94
56504;BME280;48812;51.606;-0.114;2023-05-08T04:17:43;101315.69;;;19.37;56.61
56504;BME280;48812;51.606;-0.114;2023-05-08T04:20:19;101313.91;;;19.36;56.92
56504;BME280;48812;51.606;-0.114;2023-05-08T04:22:54;101301.44;;;19.35;57.27
56504;BME280;48812;51.606;-0.114;2023-05-08T04:25:32;101294.34;;;19.34;56.58
56504;BME280;48812;51.606;-0.114;2023-05-08T04:28:07;101299.69;;;19.34;56.83
56504;BME280;48812;51.606;-0.114;2023-05-08T04:30:41;101293.47;;;19.33;57.03
56504;BME280;48812;51.606;-0.114;2023-05-08T04:33:14;101302.38;;;19.34;57.32
56504;BME280;48812;51.606;-0.114;2023-05-08T04:35:49;101309.56;;;19.33;56.68
56504;BME280;48812;51.606;-0.114;2023-05-08T04:38:23;101306.03;;;19.33;57.27
56504;BME280;48812;51.606;-0.114;2023-05-08T04:40:55;101303.34;;;19.33;56.50
56504;BME280;48812;51.606;-0.114;2023-05-08T04:43:27;101304.28;;;19.32;56.85
56504;BME280;48812;51.606;-0.114;2023-05-08T04:46:00;101304.28;;;19.32;56.51
56504;BME280;48812;51.606;-0.114;2023-05-08T04:48:33;101298.06;;;19.31;56.78
56504;BME280;48812;51.606;-0.114;2023-05-08T04:51:06;101299.84;;;19.31;57.26
56504;BME280;48812;51.606;-0.114;2023-05-08T04:53:38;101302.53;;;19.31;56.94
56504;BME280;48812;51.606;-0.114;2023-05-08T04:56:11;101305.19;;;19.31;56.65
56504;BME280;48812;51.606;-0.114;2023-05-08T04:58:43;101298.97;;;19.30;56.68
56504;BME280;48812;51.606;-0.114;2023-05-08T05:01:16;101303.47;;;19.30;56.91
56504;BME280;48812;51.606;-0.114;2023-05-08T05:03:50;101301.66;;;19.30;56.81
56504;BME280;48812;51.606;-0.114;2023-05-08T05:06:23;101302.59;;;19.29;56.80
56504;BME280;48812;51.606;-0.114;2023-05-08T05:08:55;101308.84;;;19.30;56.95
56504;BME280;48812;51.606;-0.114;2023-05-08T05:11:28;101305.28;;;19.29;56.64
56504;BME280;48812;51.606;-0.114;2023-05-08T05:14:01;101303.47;;;19.30;57.35
56504;BME280;48812;51.606;-0.114;2023-05-08T05:16:33;101307.09;;;19.29;56.71
56504;BME280;48812;51.606;-0.114;2023-05-08T05:19:06;101307.94;;;19.29;57.20
56504;BME280;48812;51.606;-0.114;2023-05-08T05:21:39;101306.16;;;19.30;57.10
56504;BME280;48812;51.606;-0.114;2023-05-08T05:24:12;101313.31;;;19.29;56.76
56504;BME280;48812;51.606;-0.114;2023-05-08T05:26:44;101308.84;;;19.30;56.81
56504;BME280;48812;51.606;-0.114;2023-05-08T05:29:17;101316.00;;;19.29;56.95
56504;BME280;48812;51.606;-0.114;2023-05-08T05:31:49;101313.31;;;19.29;57.19
56504;BME280;48812;51.606;-0.114;2023-05-08T05:34:22;101320.50;;;19.29;56.95
56504;BME280;48812;51.606;-0.114;2023-05-08T05:36:54;101323.19;;;19.29;56.85
56504;BME280;48812;51.606;-0.114;2023-05-08T05:39:27;101323.19;;;19.29;56.75
56504;BME280;48812;51.606;-0.114;2023-05-08T05:41:59;101317.81;;;19.29;56.73
56504;BME280;48812;51.606;-0.114;2023-05-08T05:44:32;101317.81;;;19.29;56.55
56504;BME280;48812;51.606;-0.114;2023-05-08T05:47:04;101319.56;;;19.30;56.75
56504;BME280;48812;51.606;-0.114;2023-05-08T05:49:38;101324.03;;;19.29;56.93
56504;BME280;48812;51.606;-0.114;2023-05-08T05:52:14;101320.44;;;19.30;57.01
56504;BME280;48812;51.606;-0.114;2023-05-08T05:54:47;101327.63;;;19.30;57.07
56504;BME280;48812;51.606;-0.114;2023-05-08T05:57:20;101326.66;;;19.31;56.82
56504;BME280;48812;51.606;-0.114;2023-05-08T05:59:52;101330.28;;;19.30;56.66
56504;BME280;48812;51.606;-0.114;2023-05-08T06:02:26;101332.00;;;19.31;57.16
56504;BME280;48812;51.606;-0.114;2023-05-08T06:04:59;101326.66;;;19.31;56.95
56504;BME280;48812;51.606;-0.114;2023-05-08T06:07:31;101332.00;;;19.31;56.63
56504;BME280;48812;51.606;-0.114;2023-05-08T06:10:07;101330.28;;;19.30;57.29
56504;BME280;48812;51.606;-0.114;2023-05-08T06:12:40;101328.41;;;19.32;57.23
56504;BME280;48812;51.606;-0.114;2023-05-08T06:15:15;101340.88;;;19.33;56.68
56504;BME280;48812;51.606;-0.114;2023-05-08T06:17:51;101347.97;;;19.34;56.92
56504;BME280;48812;51.606;-0.114;2023-05-08T06:20:23;101335.53;;;19.33;56.88
56504;BME280;48812;51.606;-0.114;2023-05-08T06:22:57;101342.59;;;19.34;56.69
56504;BME280;48812;51.606;-0.114;2023-05-08T06:25:30;101341.75;;;19.33;56.73
56504;BME280;48812;51.606;-0.114;2023-05-08T06:28:04;101336.38;;;19.33;56.55
56504;BME280;48812;51.606;-0.114;2023-05-08T06:30:39;101355.00;;;19.37;57.14
56504;BME280;48812;51.606;-0.114;2023-05-08T06:33:12;101350.56;;;19.35;56.82
56504;BME280;48812;51.606;-0.114;2023-05-08T06:35:46;101350.53;;;19.37;56.70
56504;BME280;48812;51.606;-0.114;2023-05-08T06:38:19;101347.88;;;19.37;56.43
56504;BME280;48812;51.606;-0.114;2023-05-08T06:40:51;101354.97;;;19.38;56.83
56504;BME280;48812;51.606;-0.114;2023-05-08T06:43:25;101356.69;;;19.39;56.48
56504;BME280;48812;51.606;-0.114;2023-05-08T06:45:57;101354.00;;;19.39;57.05
56504;BME280;48812;51.606;-0.114;2023-05-08T06:48:30;101356.69;;;19.39;56.29
56504;BME280;48812;51.606;-0.114;2023-05-08T06:51:02;101356.69;;;19.39;56.59
56504;BME280;48812;51.606;-0.114;2023-05-08T06:53:35;101359.38;;;19.39;57.18
56504;BME280;48812;51.606;-0.114;2023-05-08T06:56:07;101366.44;;;19.42;56.61
56504;BME280;48812;51.606;-0.114;2023-05-08T06:58:40;101369.13;;;19.42;56.67
56504;BME280;48812;51.606;-0.114;2023-05-08T07:01:15;101361.94;;;19.42;56.51
56504;BME280;48812;51.606;-0.114;2023-05-08T07:03:48;101369.03;;;19.43;56.82
56504;BME280;48812;51.606;-0.114;2023-05-08T07:06:20;101368.09;;;19.44;56.44
56504;BME280;48812;51.606;-0.114;2023-05-08T07:08:54;101369.91;;;19.44;56.37
56504;BME280;48812;51.606;-0.114;2023-05-08T07:11:27;101368.91;;;19.46;56.60
56504;BME280;48812;51.606;-0.114;2023-05-08T07:14:00;101372.53;;;19.45;56.22
56504;BME280;48812;51.606;-0.114;2023-05-08T07:16:32;101371.59;;;19.46;56.24
56504;BME280;48812;51.606;-0.114;2023-05-08T07:19:04;101378.59;;;19.49;56.60
56504;BME280;48812;51.606;-0.114;2023-05-08T07:21:37;101374.13;;;19.49;56.30
56504;BME280;48812;51.606;-0.114;2023-05-08T07:24:09;101383.91;;;19.50;57.01
56504;BME280;48812;51.606;-0.114;2023-05-08T07:26:43;101383.84;;;19.52;56.66
56504;BME280;48812;51.606;-0.114;2023-05-08T07:29:16;101382.97;;;19.51;56.50
56504;BME280;48812;51.606;-0.114;2023-05-08T07:31:48;101381.09;;;19.53;56.43
56504;BME280;48812;51.606;-0.114;2023-05-08T07:34:23;101375.72;;;19.53;56.36
56504;BME280;48812;51.606;-0.114;2023-05-08T07:36:55;101369.41;;;19.55;56.75
56504;BME280;48812;51.606;-0.114;2023-05-08T07:39:27;101373.81;;;19.56;56.32
56504;BME280;48812;51.606;-0.114;2023-05-08T07:42:00;101375.56;;;19.57;56.69
56504;BME280;48812;51.606;-0.114;2023-05-08T07:44:32;101367.53;;;19.57;56.25
56504;BME280;48812;51.606;-0.114;2023-05-08T07:47:18;101374.66;;;19.58;56.37
56504;BME280;48812;51.606;-0.114;2023-05-08T07:49:50;101367.47;;;19.58;56.43
56504;BME280;48812;51.606;-0.114;2023-05-08T07:52:25;101367.47;;;19.58;56.06
56504;BME280;48812;51.606;-0.114;2023-05-08T07:54:58;101367.47;;;19.58;55.99
56504;BME280;48812;51.606;-0.114;2023-05-08T07:57:37;101363.84;;;19.59;56.56
56504;BME280;48812;51.606;-0.114;2023-05-08T08:00:12;101357.59;;;19.59;56.57
56504;BME280;48812;51.606;-0.114;2023-05-08T08:02:46;101364.72;;;19.60;56.04
56504;BME280;48812;51.606;-0.114;2023-05-08T08:05:19;101362.97;;;19.59;56.04
56504;BME280;48812;51.606;-0.114;2023-05-08T08:07:52;101357.53;;;19.60;56.54
56504;BME280;48812;51.606;-0.114;2023-05-08T08:10:25;101359.34;;;19.60;56.04
56504;BME280;48812;51.606;-0.114;2023-05-08T08:12:59;101358.38;;;19.61;56.49
56504;BME280;48812;51.606;-0.114;2023-05-08T08:15:33;101355.69;;;19.61;56.16
56504;BME280;48812;51.606;-0.114;2023-05-08T08:18:05;101355.69;;;19.61;56.52
56504;BME280;48812;51.606;-0.114;2023-05-08T08:20:39;101357.44;;;19.62;56.24
56504;BME280;48812;51.606;-0.114;2023-05-08T08:23:12;101353.84;;;19.63;56.48
56504;BME280;48812;51.606;-0.114;2023-05-08T08:25:44;101361.00;;;19.62;56.24
56504;BME280;48812;51.606;-0.114;2023-05-08T08:28:17;101360.06;;;19.63;55.86
56504;BME280;48812;51.606;-0.114;2023-05-08T08:30:49;101358.25;;;19.64;55.70
56504;BME280;48812;51.606;-0.114;2023-05-08T08:33:22;101351.16;;;19.63;56.46
56504;BME280;48812;51.606;-0.114;2023-05-08T08:35:55;101347.50;;;19.64;56.05
56504;BME280;48812;51.606;-0.114;2023-05-08T08:38:27;101339.41;;;19.65;56.29
56504;BME280;48812;51.606;-0.114;2023-05-08T08:41:00;101346.50;;;19.66;55.92
56504;BME280;48812;51.606;-0.114;2023-05-08T08:43:33;101343.81;;;19.66;56.37
56504;BME280;48812;51.606;-0.114;2023-05-08T08:46:11;101339.31;;;19.67;56.17
56504;BME280;48812;51.606;-0.114;2023-05-08T08:48:48;101334.84;;;19.67;56.16
56504;BME280;48812;51.606;-0.114;2023-05-08T08:51:40;101337.44;;;19.69;55.88
56504;BME280;48812;51.606;-0.114;2023-05-08T08:54:18;101335.63;;;19.69;56.07
56504;BME280;48812;51.606;-0.114;2023-05-08T08:56:52;101339.19;;;19.70;55.93
56504;BME280;48812;51.606;-0.114;2023-05-08T08:59:27;101340.94;;;19.71;55.99
56504;BME280;48812;51.606;-0.114;2023-05-08T09:02:09;101331.00;;;19.73;56.22
56504;BME280;48812;51.606;-0.114;2023-05-08T09:04:48;101331.78;;;19.75;56.07
56504;BME280;48812;51.606;-0.114;2023-05-08T09:07:21;101326.34;;;19.77;55.99
56504;BME280;48812;51.606;-0.114;2023-05-08T09:09:55;101332.56;;;19.77;56.10
56504;BME280;48812;51.606;-0.114;2023-05-08T09:12:28;101327.13;;;19.79;55.78
56504;BME280;48812;51.606;-0.114;2023-05-08T09:15:01;101328.88;;;19.80;55.70
56504;BME280;48812;51.606;-0.114;2023-05-08T09:17:38;101333.25;;;19.82;55.79
56504;BME280;48812;51.606;-0.114;2023-05-08T09:20:17;101329.69;;;19.82;55.77
56504;BME280;48812;51.606;-0.114;2023-05-08T09:22:51;101326.13;;;19.81;55.62
56504;BME280;48812;51.606;-0.114;2023-05-08T09:25:40;101327.00;;;19.82;56.09
56504;BME280;48812;51.606;-0.114;2023-05-08T09:28:21;101328.75;;;19.83;55.86
56504;BME280;48812;51.606;-0.114;2023-05-08T09:30:55;101335.94;;;19.82;56.05
56504;BME280;48812;51.606;-0.114;2023-05-08T09:33:29;101333.25;;;19.82;55.60
56504;BME280;48812;51.606;-0.114;2023-05-08T09:36:03;101343.97;;;19.82;55.55
56504;BME280;48812;51.606;-0.114;2023-05-08T09:38:37;101338.63;;;19.82;55.72
56504;BME280;48812;51.606;-0.114;2023-05-08T09:41:14;101333.31;;;19.81;55.62
56504;BME280;48812;51.606;-0.114;2023-05-08T09:44:05;101332.44;;;19.80;55.76
56504;BME280;48812;51.606;-0.114;2023-05-08T09:46:41;101327.13;;;19.79;56.13
56504;BME280;48812;51.606;-0.114;2023-05-08T09:49:16;101331.63;;;19.78;55.81
56504;BME280;48812;51.606;-0.114;2023-05-08T09:51:53;101324.44;;;19.79;55.80
56504;BME280;48812;51.606;-0.114;2023-05-08T09:54:29;101325.34;;;19.79;55.78
56504;BME280;48812;51.606;-0.114;2023-05-08T09:57:10;101331.56;;;19.80;55.94
56504;BME280;48812;51.606;-0.114;2023-05-08T09:59:47;101319.16;;;19.77;55.64
56504;BME280;48812;51.606;-0.114;2023-05-08T10:02:19;101333.38;;;19.79;55.94
56504;BME280;48812;51.606;-0.114;2023-05-08T10:04:53;101320.91;;;19.78;55.79
56504;BME280;48812;51.606;-0.114;2023-05-08T10:07:32;101321.75;;;19.79;55.82
56504;BME280;48812;51.606;-0.114;2023-05-08T10:10:08;101325.41;;;19.78;55.88
56504;BME280;48812;51.606;-0.114;2023-05-08T10:12:45;101319.16;;;19.77;56.04
56504;BME280;48812;51.606;-0.114;2023-05-08T10:15:30;101325.41;;;19.78;55.95
56504;BME280;48812;51.606;-0.114;2023-05-08T10:18:06;101314.81;;;19.75;55.31
56504;BME280;48812;51.606;-0.114;2023-05-08T10:20:40;101315.69;;;19.75;55.85
56504;BME280;48812;51.606;-0.114;2023-05-08T10:23:14;101304.09;;;19.75;55.65
56504;BME280;48812;51.606;-0.114;2023-05-08T10:25:55;101306.84;;;19.73;55.62
56504;BME280;48812;51.606;-0.114;2023-05-08T10:28:32;101303.22;;;19.74;56.04
56504;BME280;48812;51.606;-0.114;2023-05-08T10:31:11;101295.19;;;19.74;56.04
56504;BME280;48812;51.606;-0.114;2023-05-08T10:33:50;101296.97;;;19.74;56.08
56504;BME280;48812;51.606;-0.114;2023-05-08T10:36:24;101282.69;;;19.73;56.14
56504;BME280;48812;51.606;-0.114;2023-05-08T10:39:02;101279.94;;;19.75;55.55
56504;BME280;48812;51.606;-0.114;2023-05-08T10:41:37;101280.81;;;19.75;55.83
56504;BME280;48812;51.606;-0.114;2023-05-08T10:44:12;101274.50;;;19.76;55.77
56504;BME280;48812;51.606;-0.114;2023-05-08T10:46:54;101265.50;;;19.77;56.05
56504;BME280;48812;51.606;-0.114;2023-05-08T10:49:43;101271.81;;;19.76;55.91
56504;BME280;48812;51.606;-0.114;2023-05-08T10:52:36;101275.38;;;19.77;55.68
56504;BME280;48812;51.606;-0.114;2023-05-08T10:58:27;101271.81;;;19.76;55.63
56504;BME280;48812;51.606;-0.114;2023-05-08T11:03:46;101265.50;;;19.77;55.78
56504;BME280;48812;51.606;-0.114;2023-05-08T11:06:42;101268.09;;;19.79;55.89
56504;BME280;48812;51.606;-0.114;2023-05-08T11:09:27;101260.22;;;19.76;55.91
56504;BME280;48812;51.606;-0.114;2023-05-08T11:12:06;101267.25;;;19.78;55.89
56504;BME280;48812;51.606;-0.114;2023-05-08T11:14:43;101272.59;;;19.78;55.66
56504;BME280;48812;51.606;-0.114;2023-05-08T11:17:26;101263.78;;;19.76;55.66
56504;BME280;48812;51.606;-0.114;2023-05-08T11:20:04;101272.75;;;19.75;55.45
56504;BME280;48812;51.606;-0.114;2023-05-08T11:22:46;101266.47;;;19.76;55.69
56504;BME280;48812;51.606;-0.114;2023-05-08T11:25:42;101254.94;;;19.74;55.79
56504;BME280;48812;51.606;-0.114;2023-05-08T11:28:18;101258.41;;;19.76;55.66
56504;BME280;48812;51.606;-0.114;2023-05-08T11:30:56;101257.56;;;19.76;56.06
56504;BME280;48812;51.606;-0.114;2023-05-08T11:33:32;101257.63;;;19.74;55.97
56504;BME280;48812;51.606;-0.114;2023-05-08T11:36:13;101260.31;;;19.74;55.58
56504;BME280;48812;51.606;-0.114;2023-05-08T11:39:09;101255.78;;;19.75;55.63
56504;BME280;48812;51.606;-0.114;2023-05-08T11:41:46;101263.91;;;19.73;55.83
56504;BME280;48812;51.606;-0.114;2023-05-08T11:44:19;101265.75;;;19.73;56.04
56504;BME280;48812;51.606;-0.114;2023-05-08T11:46:56;101272.13;;;19.70;55.82
56504;BME280;48812;51.606;-0.114;2023-05-08T11:49:29;101262.31;;;19.69;55.62
56504;BME280;48812;51.606;-0.114;2023-05-08T11:52:02;101271.31;;;19.68;55.81
56504;BME280;48812;51.606;-0.114;2023-05-08T11:54:37;101274.94;;;19.67;56.00
56504;BME280;48812;51.606;-0.114;2023-05-08T11:57:09;101270.53;;;19.66;55.93
56504;BME280;48812;51.606;-0.114;2023-05-08T11:59:43;101271.47;;;19.65;56.27
56504;BME280;48812;51.606;-0.114;2023-05-08T12:02:16;101261.66;;;19.64;56.17
56504;BME280;48812;51.606;-0.114;2023-05-08T12:04:48;101270.69;;;19.63;56.18
56504;BME280;48812;51.606;-0.114;2023-05-08T12:07:20;101282.34;;;19.62;56.10
56504;BME280;48812;51.606;-0.114;2023-05-08T12:09:53;101281.50;;;19.61;56.25
56504;BME280;48812;51.606;-0.114;2023-05-08T12:12:35;101285.97;;;19.61;55.85
56504;BME280;48812;51.606;-0.114;2023-05-08T12:15:13;101283.38;;;19.59;55.66
56504;BME280;48812;51.606;-0.114;2023-05-08T12:17:46;101286.13;;;19.58;56.08
56504;BME280;48812;51.606;-0.114;2023-05-08T12:20:19;101285.25;;;19.57;56.26
56504;BME280;48812;51.606;-0.114;2023-05-08T12:22:52;101279.03;;;19.57;55.88
56504;BME280;48812;51.606;-0.114;2023-05-08T12:25:25;101277.25;;;19.56;55.71
56504;BME280;48812;51.606;-0.114;2023-05-08T12:27:58;101266.53;;;19.56;55.85
56504;BME280;48812;51.606;-0.114;2023-05-08T12:30:31;101250.44;;;19.56;56.26
56504;BME280;48812;51.606;-0.114;2023-05-08T12:33:04;101255.81;;;19.56;55.97
56504;BME280;48812;51.606;-0.114;2023-05-08T12:35:37;101266.47;;;19.57;55.96
56504;BME280;48812;51.606;-0.114;2023-05-08T12:38:10;101253.13;;;19.56;56.04
56504;BME280;48812;51.606;-0.114;2023-05-08T12:40:45;101264.81;;;19.55;55.90
56504;BME280;48812;51.606;-0.114;2023-05-08T12:43:20;101271.84;;;19.57;56.19
56504;BME280;48812;51.606;-0.114;2023-05-08T12:45:53;101254.88;;;19.57;55.80
56504;BME280;48812;51.606;-0.114;2023-05-08T12:48:26;101254.88;;;19.57;56.05
56504;BME280;48812;51.606;-0.114;2023-05-08T12:51:03;101270.03;;;19.58;56.22
56504;BME280;48812;51.606;-0.114;2023-05-08T12:53:36;101255.81;;;19.56;56.13
56504;BME280;48812;51.606;-0.114;2023-05-08T12:56:09;101256.63;;;19.58;56.08
56504;BME280;48812;51.606;-0.114;2023-05-08T12:58:41;101253.06;;;19.57;56.33
56504;BME280;48812;51.606;-0.114;2023-05-08T13:01:14;101238.78;;;19.57;56.06
56504;BME280;48812;51.606;-0.114;2023-05-08T13:03:51;101232.50;;;19.58;56.13
56504;BME280;48812;51.606;-0.114;2023-05-08T13:06:34;101244.94;;;19.59;55.98
56504;BME280;48812;51.606;-0.114;2023-05-08T13:09:07;101246.69;;;19.60;56.32
56504;BME280;48812;51.606;-0.114;2023-05-08T13:11:39;101242.19;;;19.60;56.15
56504;BME280;48812;51.606;-0.114;2023-05-08T13:14:12;101245.72;;;19.61;56.11
56504;BME280;48812;51.606;-0.114;2023-05-08T13:16:45;101239.44;;;19.62;56.04
56504;BME280;48812;51.606;-0.114;2023-05-08T13:19:18;101241.19;;;19.63;56.13
56504;BME280;48812;51.606;-0.114;2023-05-08T13:21:51;101218.75;;;19.64;56.39
56504;BME280;48812;51.606;-0.114;2023-05-08T13:24:24;101226.66;;;19.67;56.25
56504;BME280;48812;51.606;-0.114;2023-05-08T13:26:56;101228.41;;;19.68;55.99
56504;BME280;48812;51.606;-0.114;2023-05-08T13:29:29;101228.25;;;19.71;55.74
56504;BME280;48812;51.606;-0.114;2023-05-08T13:32:01;101223.75;;;19.71;56.16
56504;BME280;48812;51.606;-0.114;2023-05-08T13:34:38;101224.47;;;19.75;56.03
56504;BME280;48812;51.606;-0.114;2023-05-08T13:37:20;101232.44;;;19.77;55.87
56504;BME280;48812;51.606;-0.114;2023-05-08T13:39:52;101228.75;;;19.79;55.97
56504;BME280;48812;51.606;-0.114;2023-05-08T13:42:25;101212.66;;;19.79;55.65
56504;BME280;48812;51.606;-0.114;2023-05-08T13:45:00;101215.34;;;19.79;55.88
56504;BME280;48812;51.606;-0.114;2023-05-08T13:47:33;101216.13;;;19.81;55.88
56504;BME280;48812;51.606;-0.114;2023-05-08T13:50:06;101216.13;;;19.81;55.98
56504;BME280;48812;51.606;-0.114;2023-05-08T13:52:39;101211.69;;;19.80;55.95